createdAt,value
2017-08-07T04:07:45.686Z,26.89
2017-08-07T04:08:26.279Z,26.85
2017-08-07T04:09:06.852Z,26.94
2017-08-07T04:09:47.426Z,26.87
2017-08-07T04:10:28.014Z,26.72
2017-08-07T04:11:08.582Z,26.65
2017-08-07T04:11:49.161Z,26.55
2017-08-07T04:12:29.742Z,26.44
2017-08-07T04:13:10.327Z,26.39
2017-08-07T04:13:50.912Z,26.29
2017-08-07T04:14:31.490Z,26.23
2017-08-07T04:15:12.078Z,26.18
2017-08-07T04:15:52.655Z,26.17
2017-08-07T04:16:33.240Z,26.02
2017-08-07T04:17:13.826Z,25.91
2017-08-07T04:17:54.405Z,25.88
2017-08-07T04:18:34.980Z,25.92
2017-08-07T04:19:15.559Z,25.76
2017-08-07T04:19:56.143Z,25.75
2017-08-07T04:20:36.712Z,25.69
2017-08-07T04:21:17.287Z,25.64
2017-08-07T04:21:57.872Z,25.57
2017-08-07T04:22:38.531Z,25.51
2017-08-07T04:23:19.109Z,25.47
2017-08-07T04:23:59.687Z,25.4
2017-08-07T04:24:40.269Z,25.28
2017-08-07T04:25:20.858Z,25.35
2017-08-07T04:26:01.441Z,25.27
2017-08-07T04:26:42.015Z,25.2
2017-08-07T04:27:22.591Z,25.17
2017-08-07T04:28:03.182Z,25
2017-08-07T04:28:43.759Z,25.02
2017-08-07T04:29:24.345Z,25.05
2017-08-07T04:30:04.913Z,24.99
2017-08-07T04:30:45.499Z,24.87
2017-08-07T04:31:26.073Z,24.96
2017-08-07T04:32:06.665Z,24.84
2017-08-07T04:32:47.556Z,24.84
2017-08-07T04:33:28.206Z,24.77
2017-08-07T04:34:08.956Z,24.71
2017-08-07T04:34:49.567Z,24.71
2017-08-07T04:35:30.409Z,24.69
2017-08-07T04:36:11.248Z,24.71
2017-08-07T04:36:51.957Z,24.61
2017-08-07T04:37:32.545Z,24.53
2017-08-07T04:38:13.116Z,24.45
2017-08-07T04:38:53.713Z,24.42
2017-08-07T04:39:34.288Z,24.16
2017-08-07T04:40:14.868Z,24.05
2017-08-07T04:40:55.446Z,23.69
2017-08-07T04:41:36.030Z,23.6
2017-08-07T04:42:16.617Z,23.51
2017-08-07T04:42:57.212Z,23.42
2017-08-07T04:43:37.790Z,23.2
2017-08-07T04:44:18.361Z,23.02
2017-08-07T04:44:58.953Z,22.9
2017-08-07T04:45:39.537Z,22.83
2017-08-07T04:46:20.117Z,22.75
2017-08-07T04:47:00.701Z,22.65
2017-08-07T04:47:41.282Z,22.54
2017-08-07T04:48:21.868Z,22.43
2017-08-07T04:49:02.443Z,22.4
2017-08-07T04:49:43.022Z,22.37
2017-08-07T04:50:23.608Z,22.28
2017-08-07T04:51:04.182Z,22.18
2017-08-07T04:51:44.764Z,22.18
2017-08-07T04:52:25.932Z,22.1
2017-08-07T04:53:05.954Z,22.02
2017-08-07T04:53:46.540Z,22.03
2017-08-07T04:54:27.134Z,22
2017-08-07T04:55:07.721Z,21.96
2017-08-07T04:55:48.299Z,22
2017-08-07T04:56:28.890Z,21.99
2017-08-07T04:57:09.470Z,21.91
2017-08-07T04:57:50.054Z,21.9
2017-08-07T04:58:30.682Z,21.9
2017-08-07T04:59:11.264Z,21.91
2017-08-07T04:59:51.869Z,21.88
2017-08-07T05:00:32.428Z,21.88
2017-08-07T05:01:13.014Z,21.83
2017-08-07T05:01:53.600Z,21.92
2017-08-07T05:02:34.339Z,21.86
2017-08-07T05:03:15.351Z,21.92
2017-08-07T05:03:56.132Z,21.79
2017-08-07T05:04:36.720Z,21.83
2017-08-07T05:05:17.302Z,21.79
2017-08-07T05:05:57.897Z,21.79
2017-08-07T05:06:38.464Z,21.67
2017-08-07T05:07:19.049Z,21.69
2017-08-07T05:07:59.643Z,21.65
2017-08-07T05:08:40.384Z,21.69
2017-08-07T05:09:20.955Z,21.68
2017-08-07T05:10:01.542Z,21.68
2017-08-07T05:10:42.130Z,21.64
2017-08-07T05:11:22.719Z,21.74
2017-08-07T05:12:03.295Z,21.86
2017-08-07T05:12:43.864Z,21.9
2017-08-07T05:13:24.461Z,21.99
2017-08-07T05:14:05.033Z,22.07
2017-08-07T05:14:45.620Z,22.31
2017-08-07T05:15:26.191Z,22.36
2017-08-07T05:16:06.761Z,22.46
2017-08-07T05:16:47.341Z,22.58
2017-08-07T05:17:27.925Z,22.72
2017-08-07T05:18:08.504Z,22.94
2017-08-07T05:18:49.214Z,22.95
2017-08-07T05:19:29.876Z,23.12
2017-08-07T05:20:10.615Z,23.19
2017-08-07T05:20:51.277Z,23.28
2017-08-07T05:21:31.954Z,23.32
2017-08-07T05:22:12.542Z,23.39
2017-08-07T05:22:53.117Z,23.5
2017-08-07T05:23:33.760Z,23.54
2017-08-07T05:24:14.519Z,23.58
2017-08-07T05:24:55.177Z,23.6
2017-08-07T05:25:35.854Z,23.72
2017-08-07T05:26:16.439Z,23.7
2017-08-07T05:26:57.140Z,23.78
2017-08-07T05:27:37.891Z,23.87
2017-08-07T05:28:18.478Z,23.94
2017-08-07T05:28:59.193Z,23.97
2017-08-07T05:29:39.880Z,24.03
2017-08-07T05:30:20.468Z,24.08
2017-08-07T05:31:01.136Z,24.13
2017-08-07T05:31:41.823Z,24.15
2017-08-07T05:32:22.474Z,24.22
2017-08-07T05:33:03.180Z,24.24
2017-08-07T05:33:43.804Z,24.18
2017-08-07T05:34:24.406Z,24.34
2017-08-07T05:35:04.985Z,24.22
2017-08-07T05:35:45.581Z,24.22
2017-08-07T05:36:26.232Z,24.22
2017-08-07T05:37:06.928Z,24.31
2017-08-07T05:37:47.506Z,24.28
2017-08-07T05:38:28.121Z,24.32
2017-08-07T05:39:08.856Z,24.21
2017-08-07T05:39:49.442Z,24.34
2017-08-07T05:40:30.013Z,24.21
2017-08-07T05:41:10.934Z,24.3
2017-08-07T05:41:51.818Z,24.27
2017-08-07T05:42:32.469Z,24.32
2017-08-07T05:43:13.079Z,24.31
2017-08-07T05:43:53.882Z,24.32
2017-08-07T05:44:34.464Z,24.32
2017-08-07T05:45:15.052Z,24.37
2017-08-07T05:45:55.689Z,24.37
2017-08-07T05:46:36.273Z,24.31
2017-08-07T05:47:16.854Z,24.35
2017-08-07T05:47:57.437Z,24.34
2017-08-07T05:48:38.028Z,24.43
2017-08-07T05:49:18.628Z,24.37
2017-08-07T05:49:59.207Z,24.53
2017-08-07T05:50:39.795Z,24.46
2017-08-07T05:51:20.381Z,24.46
2017-08-07T05:52:00.966Z,24.5
2017-08-07T05:52:41.548Z,24.55
2017-08-07T05:53:22.134Z,24.58
2017-08-07T05:54:02.717Z,24.55
2017-08-07T05:54:43.301Z,24.52
2017-08-07T05:55:23.870Z,24.58
2017-08-07T05:56:04.455Z,24.61
2017-08-07T05:56:45.040Z,24.67
2017-08-07T05:57:25.619Z,24.76
2017-08-07T05:58:06.208Z,24.67
2017-08-07T05:58:46.794Z,24.65
2017-08-07T05:59:27.385Z,24.77
2017-08-07T06:00:07.971Z,24.68
2017-08-07T06:00:48.558Z,24.71
2017-08-07T06:01:29.142Z,24.84
2017-08-07T06:02:10.049Z,24.69
2017-08-07T06:02:50.628Z,24.81
2017-08-07T06:03:31.218Z,24.77
2017-08-07T06:04:11.803Z,24.73
2017-08-07T06:04:52.384Z,24.73
2017-08-07T06:05:32.973Z,24.81
2017-08-07T06:06:13.553Z,24.81
2017-08-07T06:06:54.141Z,24.8
2017-08-07T06:07:34.827Z,24.73
2017-08-07T06:08:15.408Z,24.78
2017-08-07T06:08:55.996Z,24.81
2017-08-07T06:09:36.584Z,24.69
2017-08-07T06:10:17.170Z,24.67
2017-08-07T06:10:57.760Z,24.53
2017-08-07T06:11:38.345Z,24.47
2017-08-07T06:12:18.930Z,24.32
2017-08-07T06:12:59.514Z,24.31
2017-08-07T06:13:40.097Z,24.22
2017-08-07T06:14:20.675Z,24.25
2017-08-07T06:15:01.258Z,24.21
2017-08-07T06:15:41.832Z,24.21
2017-08-07T06:16:22.419Z,24.22
2017-08-07T06:17:03.045Z,24.31
2017-08-07T06:17:43.625Z,24.25
2017-08-07T06:18:24.203Z,24.27
2017-08-07T06:19:04.790Z,24.3
2017-08-07T06:19:45.374Z,24.37
2017-08-07T06:20:25.963Z,24.39
2017-08-07T06:21:06.550Z,24.4
2017-08-07T06:21:47.150Z,24.37
2017-08-07T06:22:27.872Z,24.45
2017-08-07T06:23:08.574Z,24.55
2017-08-07T06:23:49.204Z,24.52
2017-08-07T06:24:29.785Z,24.53
2017-08-07T06:25:10.361Z,24.6
2017-08-07T06:25:50.946Z,24.62
2017-08-07T06:26:31.530Z,24.62
2017-08-07T06:27:12.116Z,24.71
2017-08-07T06:27:52.706Z,24.67
2017-08-07T06:28:33.284Z,24.65
2017-08-07T06:29:13.868Z,24.68
2017-08-07T06:29:54.454Z,24.71
2017-08-07T06:30:35.063Z,24.73
2017-08-07T06:31:15.713Z,24.77
2017-08-07T06:31:56.256Z,24.85
2017-08-07T06:32:36.831Z,24.85
2017-08-07T06:33:17.414Z,24.96
2017-08-07T06:33:58.009Z,24.85
2017-08-07T06:34:38.589Z,24.98
2017-08-07T06:35:19.175Z,24.96
2017-08-07T06:35:59.761Z,24.96
2017-08-07T06:36:40.356Z,25.05
2017-08-07T06:37:20.947Z,24.95
2017-08-07T06:38:01.528Z,24.88
2017-08-07T06:38:42.134Z,24.98
2017-08-07T06:39:22.928Z,24.91
2017-08-07T06:40:03.636Z,24.93
2017-08-07T06:40:44.219Z,24.95
2017-08-07T06:41:24.799Z,24.9
2017-08-07T06:42:05.375Z,24.88
2017-08-07T06:42:45.962Z,24.81
2017-08-07T06:43:26.531Z,24.83
2017-08-07T06:44:07.120Z,24.88
2017-08-07T06:44:47.709Z,24.91
2017-08-07T06:45:28.281Z,24.85
2017-08-07T06:46:08.860Z,24.91
2017-08-07T06:46:49.441Z,24.85
2017-08-07T06:47:30.027Z,24.85
2017-08-07T06:48:10.615Z,24.88
2017-08-07T06:48:51.199Z,24.95
2017-08-07T06:49:31.786Z,25.03
2017-08-07T06:50:12.374Z,25.05
2017-08-07T06:50:52.947Z,24.96
2017-08-07T06:51:33.546Z,25.05
2017-08-07T06:52:14.129Z,24.98
2017-08-07T06:52:54.715Z,25.08
2017-08-07T06:53:35.304Z,25.08
2017-08-07T06:54:15.904Z,25.08
2017-08-07T06:54:56.505Z,25.09
2017-08-07T06:56:49.173Z,25.15
2017-08-07T06:57:29.752Z,25.17
2017-08-07T06:58:10.341Z,25.18
2017-08-07T06:58:50.922Z,25.21
2017-08-07T06:59:31.507Z,25.15
2017-08-07T07:00:12.096Z,25.23
2017-08-07T07:00:52.682Z,25.32
2017-08-07T07:01:33.272Z,25.32
2017-08-07T07:02:13.948Z,25.36
2017-08-07T07:02:54.527Z,25.35
2017-08-07T07:03:35.117Z,25.24
2017-08-07T07:04:15.688Z,25.4
2017-08-07T07:04:56.272Z,25.43
2017-08-07T07:05:36.863Z,25.47
2017-08-07T07:06:17.455Z,25.47
2017-08-07T07:06:58.038Z,25.5
2017-08-07T07:07:38.644Z,25.52
2017-08-07T07:08:19.212Z,25.51
2017-08-07T07:08:59.800Z,25.51
2017-08-07T07:09:40.377Z,25.52
2017-08-07T07:10:20.965Z,25.58
2017-08-07T07:11:01.552Z,25.6
2017-08-07T07:11:42.131Z,25.6
2017-08-07T07:12:22.701Z,25.67
2017-08-07T07:13:03.287Z,25.67
2017-08-07T07:13:43.868Z,25.67
2017-08-07T07:14:24.448Z,25.75
2017-08-07T07:15:05.025Z,25.7
2017-08-07T07:15:45.594Z,25.79
2017-08-07T07:16:26.187Z,25.79
2017-08-07T07:17:07.006Z,25.76
2017-08-07T07:17:47.585Z,25.77
2017-08-07T07:18:28.170Z,25.83
2017-08-07T07:19:08.756Z,25.87
2017-08-07T07:19:49.338Z,25.85
2017-08-07T07:20:29.925Z,25.8
2017-08-07T07:21:10.518Z,25.79
2017-08-07T07:21:51.098Z,25.82
2017-08-07T07:22:31.686Z,25.83
2017-08-07T07:23:12.271Z,25.73
2017-08-07T07:23:52.855Z,25.76
2017-08-07T07:24:33.448Z,25.65
2017-08-07T07:25:14.031Z,25.67
2017-08-07T07:25:54.628Z,25.76
2017-08-07T07:26:35.218Z,25.67
2017-08-07T07:27:15.803Z,25.43
2017-08-07T07:27:56.385Z,25.4
2017-08-07T07:28:36.968Z,25.45
2017-08-07T07:29:17.548Z,25.51
2017-08-07T07:29:58.130Z,25.54
2017-08-07T07:30:38.723Z,25.52
2017-08-07T07:31:19.303Z,25.58
2017-08-07T07:31:59.885Z,25.58
2017-08-07T07:32:40.476Z,25.62
2017-08-07T07:33:21.063Z,25.64
2017-08-07T07:34:01.645Z,25.76
2017-08-07T07:34:42.223Z,25.79
2017-08-07T07:35:22.814Z,25.8
2017-08-07T07:36:03.401Z,25.79
2017-08-07T07:36:43.994Z,25.77
2017-08-07T07:37:24.574Z,25.79
2017-08-07T07:38:05.164Z,25.83
2017-08-07T07:38:45.753Z,25.8
2017-08-07T07:39:26.322Z,25.87
2017-08-07T07:40:06.910Z,25.76
2017-08-07T07:40:47.489Z,25.87
2017-08-07T07:41:28.084Z,25.79
2017-08-07T07:42:08.665Z,25.94
2017-08-07T07:42:49.252Z,25.87
2017-08-07T07:43:29.832Z,25.91
2017-08-07T07:44:10.411Z,25.91
2017-08-07T07:44:51.000Z,25.76
2017-08-07T07:45:31.574Z,25.95
2017-08-07T07:46:12.165Z,25.91
2017-08-07T07:46:52.746Z,25.87
2017-08-07T07:47:33.380Z,25.88
2017-08-07T07:48:13.970Z,25.94
2017-08-07T07:48:54.550Z,25.9
2017-08-07T07:49:35.121Z,25.92
2017-08-07T07:50:15.705Z,25.95
2017-08-07T07:50:56.285Z,25.92
2017-08-07T07:51:36.876Z,25.95
2017-08-07T07:52:17.474Z,25.97
2017-08-07T07:52:58.060Z,25.94
2017-08-07T07:53:38.634Z,26.05
2017-08-07T07:54:19.219Z,25.99
2017-08-07T07:54:59.804Z,26.02
2017-08-07T07:55:40.380Z,26.09
2017-08-07T07:56:20.963Z,26.12
2017-08-07T07:57:01.544Z,26.15
2017-08-07T07:57:42.126Z,26.17
2017-08-07T07:58:22.717Z,26.21
2017-08-07T07:59:03.294Z,26.23
2017-08-07T07:59:43.874Z,26.3
2017-08-07T08:00:24.540Z,26.3
2017-08-07T08:01:05.117Z,26.23
2017-08-07T08:01:45.710Z,26.28
2017-08-07T08:02:26.288Z,26.32
2017-08-07T08:03:06.881Z,26.29
2017-08-07T08:03:47.490Z,26.36
2017-08-07T08:04:28.056Z,26.4
2017-08-07T08:05:08.634Z,26.36
2017-08-07T08:05:49.306Z,26.43
2017-08-07T08:06:29.992Z,26.43
2017-08-07T08:07:10.629Z,26.43
2017-08-07T08:07:51.213Z,26.58
2017-08-07T08:08:31.828Z,26.5
2017-08-07T08:09:12.405Z,26.55
2017-08-07T08:09:52.988Z,26.65
2017-08-07T08:10:33.568Z,26.62
2017-08-07T08:11:14.149Z,26.62
2017-08-07T08:11:54.740Z,26.69
2017-08-07T08:12:35.317Z,26.63
2017-08-07T08:13:15.907Z,26.6
2017-08-07T08:13:56.478Z,26.54
2017-08-07T08:14:37.055Z,26.58
2017-08-07T08:15:17.642Z,26.54
2017-08-07T08:15:58.210Z,26.51
2017-08-07T08:16:38.797Z,26.6
2017-08-07T08:17:19.362Z,26.67
2017-08-07T08:17:59.939Z,26.6
2017-08-07T08:18:40.522Z,26.67
2017-08-07T08:19:21.102Z,26.6
2017-08-07T08:20:01.677Z,26.6
2017-08-07T08:20:42.250Z,26.65
2017-08-07T08:21:22.834Z,26.55
2017-08-07T08:22:03.418Z,26.51
2017-08-07T08:22:44.009Z,26.5
2017-08-07T08:23:24.598Z,26.45
2017-08-07T08:24:05.188Z,26.4
2017-08-07T08:24:45.766Z,26.47
2017-08-07T08:25:26.362Z,26.45
2017-08-07T08:26:06.949Z,26.43
2017-08-07T08:26:47.540Z,26.45
2017-08-07T08:27:28.122Z,26.43
2017-08-07T08:28:08.698Z,26.4
2017-08-07T08:28:49.280Z,26.47
2017-08-07T08:29:29.870Z,26.51
2017-08-07T08:30:10.455Z,26.6
2017-08-07T08:30:51.034Z,26.51
2017-08-07T08:31:31.617Z,26.57
2017-08-07T08:32:12.198Z,26.6
2017-08-07T08:32:52.788Z,26.6
2017-08-07T08:33:33.372Z,26.69
2017-08-07T08:34:13.961Z,26.66
2017-08-07T08:34:54.539Z,26.63
2017-08-07T08:35:35.137Z,26.67
2017-08-07T08:36:15.727Z,26.69
2017-08-07T08:36:56.312Z,26.62
2017-08-07T08:37:36.886Z,26.66
2017-08-07T08:38:17.470Z,26.69
2017-08-07T08:38:58.064Z,26.65
2017-08-07T08:39:38.639Z,26.63
2017-08-07T08:40:19.226Z,26.62
2017-08-07T08:40:59.809Z,26.66
2017-08-07T08:41:40.401Z,26.65
2017-08-07T08:42:20.979Z,26.7
2017-08-07T08:43:01.675Z,26.66
2017-08-07T08:43:42.526Z,26.67
2017-08-07T08:44:23.108Z,26.72
2017-08-07T08:45:03.690Z,26.75
2017-08-07T08:45:44.284Z,26.69
2017-08-07T08:46:24.860Z,26.7
2017-08-07T08:47:05.444Z,26.73
2017-08-07T08:47:46.035Z,26.73
2017-08-07T08:48:26.611Z,26.76
2017-08-07T08:49:07.196Z,26.81
2017-08-07T08:49:47.782Z,26.75
2017-08-07T08:50:28.369Z,26.82
2017-08-07T08:51:08.950Z,26.85
2017-08-07T08:51:49.540Z,26.88
2017-08-07T08:52:30.125Z,26.88
2017-08-07T08:53:10.707Z,26.88
2017-08-07T08:53:51.305Z,26.97
2017-08-07T08:54:31.875Z,26.94
2017-08-07T08:55:12.440Z,26.91
2017-08-07T08:55:53.036Z,26.95
2017-08-07T08:56:33.622Z,26.94
2017-08-07T08:57:14.211Z,26.94
2017-08-07T08:57:54.795Z,27.02
2017-08-07T08:58:35.384Z,27.06
2017-08-07T08:59:15.963Z,27.02
2017-08-07T08:59:56.559Z,27.09
2017-08-07T09:00:37.166Z,26.97
2017-08-07T09:01:17.755Z,27.03
2017-08-07T09:01:58.341Z,27.06
2017-08-07T09:02:38.908Z,27.1
2017-08-07T09:03:19.480Z,27.09
2017-08-07T09:04:00.122Z,27.04
2017-08-07T09:04:40.704Z,27.07
2017-08-07T09:05:21.286Z,27.02
2017-08-07T09:06:01.912Z,27.02
2017-08-07T09:06:42.644Z,27
2017-08-07T09:07:23.383Z,27.04
2017-08-07T09:08:03.958Z,26.95
2017-08-07T09:08:44.803Z,26.94
2017-08-07T09:09:25.590Z,27.02
2017-08-07T09:10:06.193Z,26.99
2017-08-07T09:10:46.785Z,26.88
2017-08-07T09:11:27.362Z,26.87
2017-08-07T09:12:07.954Z,26.84
2017-08-07T09:12:48.540Z,26.88
2017-08-07T09:13:29.168Z,26.85
2017-08-07T09:14:09.798Z,26.85
2017-08-07T09:14:50.453Z,26.77
2017-08-07T09:15:31.134Z,26.77
2017-08-07T09:16:11.866Z,26.82
2017-08-07T09:16:52.474Z,26.87
2017-08-07T09:17:33.063Z,26.82
2017-08-07T09:18:13.646Z,26.89
2017-08-07T09:18:54.361Z,26.88
2017-08-07T09:19:34.962Z,26.85
2017-08-07T09:20:15.558Z,26.8
2017-08-07T09:20:56.144Z,26.8
2017-08-07T09:21:36.732Z,26.84
2017-08-07T09:22:17.319Z,26.81
2017-08-07T09:22:57.905Z,26.73
2017-08-07T09:23:38.495Z,26.81
2017-08-07T09:24:19.082Z,26.84
2017-08-07T09:24:59.659Z,26.85
2017-08-07T09:25:40.362Z,26.87
2017-08-07T09:26:21.231Z,26.82
2017-08-07T09:27:02.049Z,26.91
2017-08-07T09:27:42.914Z,26.85
2017-08-07T09:28:23.606Z,26.82
2017-08-07T09:29:04.204Z,26.89
2017-08-07T09:29:44.791Z,26.84
2017-08-07T09:30:25.380Z,26.84
2017-08-07T09:31:05.968Z,26.85
2017-08-07T09:31:46.561Z,26.76
2017-08-07T09:32:27.150Z,26.81
2017-08-07T09:33:07.735Z,26.84
2017-08-07T09:33:48.320Z,26.75
2017-08-07T09:34:28.912Z,26.75
2017-08-07T09:35:09.503Z,26.85
2017-08-07T09:35:50.140Z,26.81
2017-08-07T09:36:30.830Z,26.82
2017-08-07T09:37:11.538Z,26.84
2017-08-07T09:37:52.218Z,26.82
2017-08-07T09:38:32.820Z,26.84
2017-08-07T09:39:13.400Z,26.8
2017-08-07T09:39:53.994Z,26.84
2017-08-07T09:40:34.585Z,26.87
2017-08-07T09:41:15.174Z,26.84
2017-08-07T09:41:55.763Z,26.73
2017-08-07T09:42:36.353Z,26.75
2017-08-07T09:43:17.023Z,26.8
2017-08-07T09:43:57.725Z,26.73
2017-08-07T09:44:38.334Z,26.66
2017-08-07T09:45:18.922Z,26.66
2017-08-07T09:45:59.515Z,26.67
2017-08-07T09:46:40.102Z,26.7
2017-08-07T09:47:20.684Z,26.75
2017-08-07T09:48:01.264Z,26.7
2017-08-07T09:48:41.854Z,26.75
2017-08-07T09:49:22.436Z,26.63
2017-08-07T09:50:03.018Z,26.69
2017-08-07T09:50:43.623Z,26.67
2017-08-07T09:51:24.210Z,26.7
2017-08-07T09:52:04.792Z,26.65
2017-08-07T09:52:45.368Z,26.67
2017-08-07T09:53:25.953Z,26.72
2017-08-07T09:54:06.549Z,26.62
2017-08-07T09:54:54.079Z,26.69
2017-08-07T09:55:34.661Z,26.66
2017-08-07T09:56:15.252Z,26.72
2017-08-07T09:56:55.840Z,26.73
2017-08-07T09:57:36.443Z,26.65
2017-08-07T09:58:17.034Z,26.69
2017-08-07T09:58:57.727Z,26.76
2017-08-07T09:59:38.315Z,26.75
2017-08-07T10:00:18.906Z,26.77
2017-08-07T10:00:59.500Z,26.88
2017-08-07T10:01:40.089Z,26.82
2017-08-07T10:02:20.693Z,26.75
2017-08-07T10:03:01.282Z,26.75
2017-08-07T10:03:41.867Z,26.66
2017-08-07T10:04:23.078Z,26.66
2017-08-07T10:05:04.066Z,26.63
2017-08-07T10:05:44.843Z,26.72
2017-08-07T10:06:25.562Z,26.7
2017-08-07T10:07:06.388Z,26.69
2017-08-07T10:07:47.223Z,26.73
2017-08-07T10:08:27.861Z,26.72
2017-08-07T10:09:08.448Z,26.7
2017-08-07T10:09:49.031Z,26.7
2017-08-07T10:10:29.623Z,26.65
2017-08-07T10:11:10.201Z,26.73
2017-08-07T10:11:50.784Z,26.66
2017-08-07T10:12:31.373Z,26.66
2017-08-07T10:13:11.966Z,26.67
2017-08-07T10:13:52.554Z,26.66
2017-08-07T10:14:33.134Z,26.69
2017-08-07T10:15:13.740Z,26.67
2017-08-07T10:15:54.335Z,26.69
2017-08-07T10:16:34.925Z,26.67
2017-08-07T10:17:15.505Z,26.73
2017-08-07T10:17:56.098Z,26.76
2017-08-07T10:18:36.689Z,26.81
2017-08-07T10:19:17.295Z,26.73
2017-08-07T10:19:58.131Z,26.7
2017-08-07T10:20:38.739Z,26.7
2017-08-07T10:21:19.563Z,26.67
2017-08-07T10:22:00.184Z,26.67
2017-08-07T10:22:40.767Z,26.65
2017-08-07T10:23:21.368Z,26.67
2017-08-07T10:24:01.983Z,26.65
2017-08-07T10:24:42.658Z,26.66
2017-08-07T10:25:23.238Z,26.75
2017-08-07T10:26:03.847Z,26.67
2017-08-07T10:26:44.436Z,26.66
2017-08-07T10:27:25.024Z,26.67
2017-08-07T10:28:05.613Z,26.66
2017-08-07T10:28:46.201Z,26.66
2017-08-07T10:29:26.790Z,26.69
2017-08-07T10:30:07.371Z,26.66
2017-08-07T10:30:47.970Z,26.66
2017-08-07T10:31:28.552Z,26.65
2017-08-07T10:32:09.147Z,26.54
2017-08-07T10:32:49.742Z,26.54
2017-08-07T10:33:30.331Z,26.52
2017-08-07T10:34:10.922Z,26.58
2017-08-07T10:34:51.504Z,26.58
2017-08-07T10:35:32.176Z,26.57
2017-08-07T10:36:12.766Z,26.65
2017-08-07T10:36:53.357Z,26.63
2017-08-07T10:37:33.945Z,26.67
2017-08-07T10:42:27.950Z,26.73
2017-08-07T10:43:08.534Z,26.67
2017-08-07T10:43:49.118Z,26.73
2017-08-07T10:44:29.706Z,26.76
2017-08-07T10:45:10.293Z,26.76
2017-08-07T10:45:50.878Z,26.75
2017-08-07T10:46:31.466Z,26.81
2017-08-07T10:47:12.209Z,26.82
2017-08-07T10:47:52.986Z,26.84
2017-08-07T10:48:33.818Z,26.82
2017-08-07T10:49:14.751Z,26.84
2017-08-07T10:49:55.586Z,26.82
2017-08-07T10:50:36.517Z,26.84
2017-08-07T10:51:17.471Z,26.84
2017-08-07T10:51:58.303Z,26.87
2017-08-07T10:52:39.341Z,26.84
2017-08-07T10:53:20.104Z,26.85
2017-08-07T10:54:01.138Z,26.87
2017-08-07T10:54:42.205Z,26.84
2017-08-07T10:55:23.016Z,26.85
2017-08-07T10:56:04.021Z,26.85
2017-08-07T10:56:44.941Z,26.91
2017-08-07T10:57:25.895Z,26.87
2017-08-07T10:58:06.850Z,26.88
2017-08-07T10:58:47.427Z,26.92
2017-08-07T10:59:28.132Z,26.85
2017-08-07T11:00:08.864Z,26.91
2017-08-07T11:00:49.628Z,26.88
2017-08-07T11:01:30.566Z,26.92
2017-08-07T11:02:11.745Z,26.87
2017-08-07T11:02:52.638Z,26.95
2017-08-07T11:03:33.357Z,26.87
2017-08-07T11:04:14.197Z,26.92
2017-08-07T11:04:54.987Z,26.94
2017-08-07T11:05:36.111Z,26.94
2017-08-07T11:06:17.100Z,26.92
2017-08-07T11:06:57.845Z,27.02
2017-08-07T11:07:38.496Z,26.97
2017-08-07T11:08:19.235Z,27
2017-08-07T11:09:00.518Z,27.07
2017-08-07T11:09:41.400Z,27
2017-08-07T11:10:22.294Z,26.99
2017-08-07T11:11:03.005Z,27.06
2017-08-07T11:11:43.857Z,27
2017-08-07T11:12:24.733Z,27.02
2017-08-07T11:13:05.502Z,27.03
2017-08-07T11:13:46.164Z,27.13
2017-08-07T11:14:27.030Z,27.04
2017-08-07T11:15:07.805Z,27.1
2017-08-07T11:15:48.475Z,27.09
2017-08-07T11:16:29.906Z,27.14
2017-08-07T11:17:10.753Z,27.1
2017-08-07T11:17:51.580Z,27.07
2017-08-07T11:18:32.704Z,27.12
2017-08-07T11:19:13.658Z,27.14
2017-08-07T11:19:54.416Z,27.17
2017-08-07T11:20:35.466Z,27.09
2017-08-07T11:21:16.609Z,27.12
2017-08-07T11:21:57.641Z,27.12
2017-08-07T11:22:38.660Z,27.14
2017-08-07T11:23:19.945Z,27.1
2017-08-07T11:24:00.949Z,27.14
2017-08-07T11:24:41.926Z,27.12
2017-08-07T11:25:23.056Z,27.19
2017-08-07T11:26:04.139Z,27.12
2017-08-07T11:26:45.100Z,27.18
2017-08-07T11:27:26.460Z,27.07
2017-08-07T11:28:07.381Z,27.09
2017-08-07T11:28:48.400Z,27.14
2017-08-07T11:29:29.604Z,27.21
2017-08-07T11:30:11.288Z,27.14
2017-08-07T11:30:52.288Z,27.1
2017-08-07T11:31:33.217Z,27.18
2017-08-07T11:32:14.382Z,27.18
2017-08-07T11:32:56.502Z,27.13
2017-08-07T11:33:37.482Z,27.13
2017-08-07T11:34:18.501Z,27.18
2017-08-07T11:34:59.509Z,27.18
2017-08-07T11:35:40.314Z,27.17
2017-08-07T11:36:21.640Z,27.17
2017-08-07T11:37:02.633Z,27.07
2017-08-07T11:37:43.678Z,27.09
2017-08-07T11:38:24.721Z,27.19
2017-08-07T11:39:05.641Z,27.09
2017-08-07T11:39:47.386Z,27.19
2017-08-07T11:40:28.598Z,27.27
2017-08-07T11:41:09.872Z,27.24
2017-08-07T11:41:50.574Z,27.21
2017-08-07T11:42:31.668Z,27.17
2017-08-07T11:43:12.661Z,27.24
2017-08-07T11:43:54.149Z,27.22
2017-08-07T11:44:35.496Z,27.24
2017-08-07T11:45:16.789Z,27.22
2017-08-07T11:45:57.932Z,27.31
2017-08-07T11:46:39.053Z,27.29
2017-08-07T11:47:19.852Z,27.29
2017-08-07T11:48:00.947Z,27.29
2017-08-07T11:48:42.148Z,27.32
2017-08-07T11:49:24.241Z,27.44
2017-08-07T11:50:04.885Z,27.41
2017-08-07T11:50:45.936Z,27.43
2017-08-07T11:51:26.893Z,27.39
2017-08-07T11:52:07.899Z,27.46
2017-08-07T11:52:48.654Z,27.36
2017-08-07T11:53:29.289Z,27.24
2017-08-07T11:54:10.144Z,27.27
2017-08-07T11:54:51.305Z,27.1
2017-08-07T11:55:32.548Z,27.14
2017-08-07T11:56:13.647Z,27.14
2017-08-07T11:56:54.820Z,27.06
2017-08-07T11:57:35.703Z,26.97
2017-08-07T11:58:16.835Z,26.99
2017-08-07T11:58:57.608Z,26.97
2017-08-07T11:59:38.697Z,26.92
2017-08-07T12:00:19.882Z,27
2017-08-07T12:01:00.982Z,26.92
2017-08-07T12:01:41.821Z,26.89
2017-08-07T12:02:23.017Z,26.95
2017-08-07T12:03:04.065Z,26.97
2017-08-07T12:03:45.273Z,26.87
2017-08-07T12:04:26.541Z,26.97
2017-08-07T12:05:07.326Z,26.94
2017-08-07T12:05:48.531Z,26.92
2017-08-07T12:06:29.750Z,26.94
2017-08-07T12:07:10.625Z,26.95
2017-08-07T12:07:51.870Z,26.89
2017-08-07T12:08:33.075Z,26.88
2017-08-07T12:09:14.487Z,26.92
2017-08-07T12:09:55.557Z,26.92
2017-08-07T12:10:36.591Z,26.92
2017-08-07T12:11:17.670Z,27
2017-08-07T12:12:00.815Z,27.06
2017-08-07T12:12:42.139Z,26.94
2017-08-07T12:13:24.123Z,26.99
2017-08-07T12:14:05.845Z,26.87
2017-08-07T12:14:46.968Z,26.91
2017-08-07T12:15:27.722Z,26.91
2017-08-07T12:16:09.297Z,26.94
2017-08-07T12:16:50.398Z,26.91
2017-08-07T12:17:31.796Z,26.97
2017-08-07T12:18:13.220Z,26.99
2017-08-07T12:18:54.186Z,26.91
2017-08-07T12:19:35.085Z,26.91
2017-08-07T12:20:16.343Z,27.04
2017-08-07T12:20:57.438Z,26.95
2017-08-07T12:21:38.503Z,26.91
2017-08-07T12:22:19.375Z,27.03
2017-08-07T12:23:00.503Z,26.92
2017-08-07T12:23:41.434Z,26.91
2017-08-07T12:24:22.823Z,26.91
2017-08-07T12:25:04.034Z,26.97
2017-08-07T12:25:45.858Z,26.89
2017-08-07T12:26:26.928Z,26.89
2017-08-07T12:27:07.898Z,26.91
2017-08-07T12:27:49.041Z,26.91
2017-08-07T12:28:30.328Z,27
2017-08-07T12:29:11.629Z,26.95
2017-08-07T12:29:52.702Z,26.94
2017-08-07T12:30:33.570Z,27.02
2017-08-07T12:31:14.555Z,26.94
2017-08-07T12:31:55.632Z,26.91
2017-08-07T12:32:36.561Z,26.95
2017-08-07T12:33:17.546Z,27.04
2017-08-07T12:33:58.500Z,26.97
2017-08-07T12:34:39.426Z,26.99
2017-08-07T12:35:22.305Z,26.97
2017-08-07T12:36:03.549Z,26.92
2017-08-07T12:36:44.667Z,26.92
2017-08-07T12:37:25.915Z,26.95
2017-08-07T12:38:06.774Z,27.03
2017-08-07T12:38:47.592Z,26.94
2017-08-07T12:39:30.319Z,27
2017-08-07T12:40:11.324Z,26.94
2017-08-07T12:40:52.256Z,26.92
2017-08-07T12:41:33.506Z,26.97
2017-08-07T12:42:14.234Z,26.91
2017-08-07T12:42:55.030Z,27
2017-08-07T12:43:36.156Z,27.04
2017-08-07T12:44:17.304Z,27.04
2017-08-07T12:44:58.343Z,27.03
2017-08-07T12:45:39.400Z,26.97
2017-08-07T12:46:20.314Z,27.03
2017-08-07T12:47:01.609Z,27.07
2017-08-07T12:47:42.695Z,27.14
2017-08-07T12:48:23.530Z,27.18
2017-08-07T12:49:04.381Z,27.12
2017-08-07T12:49:45.261Z,27.09
2017-08-07T12:50:26.198Z,27.1
2017-08-07T12:51:07.080Z,27.13
2017-08-07T12:51:48.028Z,27.1
2017-08-07T12:52:29.796Z,27.18
2017-08-07T12:53:10.738Z,27.18
2017-08-07T12:53:52.086Z,27.12
2017-08-07T12:54:33.307Z,27.1
2017-08-07T12:55:14.631Z,27.06
2017-08-07T12:55:55.675Z,27
2017-08-07T12:56:37.984Z,26.95
2017-08-07T12:57:21.077Z,26.91
2017-08-07T12:58:02.654Z,26.89
2017-08-07T12:58:43.846Z,26.89
2017-08-07T12:59:24.778Z,26.87
2017-08-07T13:00:06.929Z,26.8